createdAt,value
2022-08-07T00:02:35.502Z,101377.63
2022-08-07T00:04:04.867Z,101375.97
2022-08-07T00:06:34.160Z,101369.78
2022-08-07T00:09:16.428Z,101372.53
2022-08-07T00:11:54.269Z,101372.53
2022-08-07T00:14:25.233Z,101363.91
2022-08-07T00:16:53.418Z,101365.44
2022-08-07T00:19:21.755Z,101361.50
2022-08-07T00:21:55.311Z,101367.63
2022-08-07T00:24:24.881Z,101361.56
2022-08-07T00:27:06.388Z,101363.22
2022-08-07T00:29:37.070Z,101354.25
2022-08-07T00:32:06.857Z,101359.63
2022-08-07T00:34:35.612Z,101352.47
2022-08-07T00:37:05.128Z,101358.75
2022-08-07T00:39:34.049Z,101358.75
2022-08-07T00:42:05.127Z,101345.59
2022-08-07T00:44:35.149Z,101341.09
2022-08-07T00:47:15.795Z,101334.09
2022-08-07T00:50:19.369Z,101333.13
2022-08-07T00:52:47.378Z,101323.41
2022-08-07T00:55:17.428Z,101321.81
2022-08-07T00:57:55.850Z,101318.13
2022-08-07T01:00:24.854Z,101311.25
2022-08-07T01:02:53.472Z,101310.31
2022-08-07T01:05:21.535Z,101306.78
2022-08-07T01:07:52.314Z,101312.13
2022-08-07T01:10:21.048Z,101306.78
2022-08-07T01:12:53.865Z,101305.91
2022-08-07T01:15:35.839Z,101298.81
2022-08-07T01:18:16.828Z,101299.81
2022-08-07T01:20:59.746Z,101304.41
2022-08-07T01:23:35.406Z,101302.75
2022-08-07T01:26:11.976Z,101304.41
2022-08-07T01:28:46.038Z,101301.88
2022-08-07T01:31:18.237Z,101303.00
2022-08-07T01:33:55.105Z,101304.88
2022-08-07T01:36:33.910Z,101301.19
2022-08-07T01:39:10.562Z,101297.06
2022-08-07T01:42:01.669Z,101292.50
2022-08-07T01:44:32.800Z,101289.78
2022-08-07T01:48:16.652Z,101293.31
2022-08-07T01:49:53.587Z,101297.00
2022-08-07T01:52:26.583Z,101298.88
2022-08-07T01:54:56.518Z,101293.28
2022-08-07T01:58:00.989Z,101308.34
2022-08-07T02:00:20.103Z,101306.78
2022-08-07T02:03:18.434Z,101306.56
2022-08-07T02:06:08.826Z,101312.72
2022-08-07T02:08:54.228Z,101309.13
2022-08-07T02:11:30.805Z,101307.47
2022-08-07T02:14:35.721Z,101307.59
2022-08-07T02:17:06.485Z,101303.19
2022-08-07T02:20:04.850Z,101300.47
2022-08-07T02:22:25.875Z,101300.53
2022-08-07T02:24:56.342Z,101297.13
2022-08-07T02:27:25.692Z,101295.38
2022-08-07T02:29:57.898Z,101302.41
2022-08-07T02:32:36.444Z,101297.22
2022-08-07T02:35:11.300Z,101300.97
2022-08-07T02:37:43.825Z,101301.03
2022-08-07T02:40:30.832Z,101294.09
2022-08-07T02:43:07.674Z,101300.13
2022-08-07T02:45:58.311Z,101297.50
2022-08-07T02:48:30.199Z,101301.88
2022-08-07T02:51:04.125Z,101304.47
2022-08-07T02:53:38.294Z,101306.53
2022-08-07T02:56:17.653Z,101296.63
2022-08-07T02:58:55.321Z,101293.38
2022-08-07T03:01:35.499Z,101296.03
2022-08-07T03:04:12.595Z,101290.47
2022-08-07T03:06:48.266Z,101294.06
2022-08-07T03:09:41.825Z,101291.25
2022-08-07T03:12:16.206Z,101287.22
2022-08-07T03:14:52.920Z,101286.09
2022-08-07T03:17:22.216Z,101286.31
2022-08-07T03:19:55.543Z,101285.91
2022-08-07T03:22:33.133Z,101293.00
2022-08-07T03:25:03.859Z,101290.34
2022-08-07T03:28:08.873Z,101291.13
2022-08-07T03:30:33.891Z,101287.59
2022-08-07T03:33:04.239Z,101287.44
2022-08-07T03:35:43.561Z,101288.47
2022-08-07T03:38:13.454Z,101288.69
2022-08-07T03:40:44.256Z,101285.19
2022-08-07T03:43:20.475Z,101294.06
2022-08-07T03:45:56.442Z,101296.97
2022-08-07T03:48:29.783Z,101300.00
2022-08-07T03:50:59.625Z,101304.28
2022-08-07T03:54:06.023Z,101309.59
2022-08-07T03:56:33.221Z,101316.88
2022-08-07T03:59:13.488Z,101316.72
2022-08-07T04:01:47.812Z,101313.97
2022-08-07T04:04:20.741Z,101313.91
2022-08-07T04:06:53.983Z,101314.91
2022-08-07T04:09:45.324Z,101323.84
2022-08-07T04:12:27.520Z,101336.34
2022-08-07T04:15:00.226Z,101336.66
2022-08-07T04:18:30.838Z,101336.66
2022-08-07T04:20:19.826Z,101340.28
2022-08-07T04:22:53.656Z,101341.13
2022-08-07T04:25:39.126Z,101344.75
2022-08-07T04:28:13.436Z,101340.41
2022-08-07T04:30:55.134Z,101336.94
2022-08-07T04:33:28.693Z,101338.91
2022-08-07T04:35:57.443Z,101343.31
2022-08-07T04:38:28.664Z,101346.75
2022-08-07T04:40:57.822Z,101347.69
2022-08-07T04:44:10.712Z,101350.47
2022-08-07T04:46:53.957Z,101365.63
2022-08-07T04:49:57.549Z,101357.75
2022-08-07T04:52:52.854Z,101354.22
2022-08-07T04:58:09.810Z,101367.06
2022-08-07T04:58:48.821Z,101360.84
2022-08-07T05:01:39.774Z,101365.31
2022-08-07T05:04:27.188Z,101355.34
2022-08-07T05:07:20.973Z,101356.22
2022-08-07T05:10:33.370Z,101361.66
2022-08-07T05:14:55.988Z,101371.75
2022-08-07T05:16:09.256Z,101377.03
2022-08-07T05:18:44.574Z,101375.28
2022-08-07T05:21:18.585Z,101373.28
2022-08-07T05:24:11.835Z,101382.94
2022-08-07T05:26:41.406Z,101382.88
2022-08-07T05:29:19.462Z,101390.19
2022-08-07T05:31:52.834Z,101387.31
2022-08-07T05:34:27.887Z,101388.13
2022-08-07T05:36:57.014Z,101391.75
2022-08-07T05:40:06.696Z,101386.22
2022-08-07T05:42:34.550Z,101387.28
2022-08-07T05:45:26.100Z,101393.53
2022-08-07T05:48:03.027Z,101400.44
2022-08-07T05:50:43.197Z,101397.63
2022-08-07T05:54:13.523Z,101395.97
2022-08-07T05:56:05.937Z,101399.44
2022-08-07T05:58:39.549Z,101404.78
2022-08-07T06:01:12.575Z,101398.50
2022-08-07T06:03:57.043Z,101395.69
2022-08-07T06:06:32.570Z,101410.78
2022-08-07T06:09:05.316Z,101412.34
2022-08-07T06:11:37.613Z,101413.13
2022-08-07T06:14:12.719Z,101413.94
2022-08-07T06:16:56.378Z,101424.53
2022-08-07T06:19:51.983Z,101426.16
2022-08-07T06:22:23.867Z,101421.56
2022-08-07T06:25:10.268Z,101417.91
2022-08-07T06:28:00.636Z,101416.97
2022-08-07T06:30:35.273Z,101420.56
2022-08-07T06:33:16.249Z,101419.56
2022-08-07T06:36:12.428Z,101419.56
2022-08-07T06:38:39.016Z,101422.97
2022-08-07T06:41:47.633Z,101430.09
2022-08-07T06:44:15.100Z,101435.16
2022-08-07T06:46:53.763Z,101436.94
2022-08-07T06:49:35.409Z,101442.91
2022-08-07T06:52:31.325Z,101441.97
2022-08-07T06:55:32.816Z,101440.97
2022-08-07T06:58:09.623Z,101446.16
2022-08-07T07:00:53.606Z,101452.97
2022-08-07T07:03:26.375Z,101452.56
2022-08-07T07:06:11.086Z,101457.72
2022-08-07T07:08:39.847Z,101450.38
2022-08-07T07:12:09.066Z,101458.19
2022-08-07T07:14:04.433Z,101454.38
2022-08-07T07:16:50.092Z,101460.66
2022-08-07T07:19:57.775Z,101460.38
2022-08-07T07:22:36.321Z,101454.00
2022-08-07T07:26:31.280Z,101458.22
2022-08-07T07:28:07.754Z,101450.22
2022-08-07T07:31:21.624Z,101454.63
2022-08-07T07:33:59.270Z,101460.53
2022-08-07T07:36:32.706Z,101463.09
2022-08-07T07:39:04.587Z,101475.22
2022-08-07T07:42:01.972Z,101472.34
2022-08-07T07:44:26.534Z,101467.38
2022-08-07T07:47:04.366Z,101475.25
2022-08-07T07:50:34.370Z,101466.22
2022-08-07T07:52:35.240Z,101464.59
2022-08-07T07:55:07.203Z,101469.53
2022-08-07T07:57:51.795Z,101472.88
2022-08-07T08:00:31.475Z,101469.97
2022-08-07T08:03:16.934Z,101480.56
2022-08-07T08:06:03.398Z,101477.88
2022-08-07T08:08:36.909Z,101479.69
2022-08-07T08:11:16.410Z,101479.25
2022-08-07T08:13:58.188Z,101485.59
2022-08-07T08:16:42.084Z,101488.03
2022-08-07T08:20:19.071Z,101483.16
2022-08-07T08:22:33.533Z,101487.34
2022-08-07T08:25:27.041Z,101481.19
2022-08-07T08:28:24.055Z,101482.59
2022-08-07T08:31:16.061Z,101477.09
2022-08-07T08:33:49.564Z,101484.63
2022-08-07T08:36:29.660Z,101485.22
2022-08-07T08:39:02.251Z,101474.41
2022-08-07T08:41:59.159Z,101472.28
2022-08-07T08:44:59.258Z,101464.38
2022-08-07T08:47:55.619Z,101475.59
2022-08-07T08:50:39.349Z,101474.09
2022-08-07T08:53:32.943Z,101482.59
2022-08-07T08:56:09.705Z,101469.88
2022-08-07T08:58:54.586Z,101474.44
2022-08-07T09:01:40.098Z,101470.81
2022-08-07T09:04:30.134Z,101466.50
2022-08-07T09:07:14.777Z,101469.97
2022-08-07T09:09:57.430Z,101472.66
2022-08-07T09:12:53.808Z,101475.06
2022-08-07T09:16:22.033Z,101476.09
2022-08-07T09:19:00.864Z,101474.28
2022-08-07T09:22:22.706Z,101473.06
2022-08-07T09:24:56.081Z,101477.22
2022-08-07T09:27:59.848Z,101476.81
2022-08-07T09:30:54.866Z,101478.91
2022-08-07T09:33:57.845Z,101467.91
2022-08-07T09:36:36.994Z,101475.72
2022-08-07T09:39:55.249Z,101477.03
2022-08-07T09:42:42.875Z,101480.78
2022-08-07T09:47:23.433Z,101483.88
2022-08-07T09:48:25.192Z,101475.72
2022-08-07T09:52:10.856Z,101478.31
2022-08-07T09:54:11.566Z,101475.91
2022-08-07T09:57:21.689Z,101477.56
2022-08-07T10:00:02.432Z,101476.84
2022-08-07T10:02:57.446Z,101474.97
2022-08-07T10:06:00.183Z,101476.91
2022-08-07T10:08:57.893Z,101478.47
2022-08-07T10:12:01.518Z,101479.50
2022-08-07T10:14:55.170Z,101481.75
2022-08-07T10:17:26.788Z,101474.31
2022-08-07T10:20:31.727Z,101477.41
2022-08-07T10:24:06.658Z,101477.97
2022-08-07T10:26:42.664Z,101474.16
2022-08-07T10:29:45.547Z,101475.56
2022-08-07T10:32:53.766Z,101468.53
2022-08-07T10:35:53.643Z,101467.38
2022-08-07T10:38:48.807Z,101476.63
2022-08-07T10:41:47.108Z,101471.28
2022-08-07T10:44:37.693Z,101471.13
2022-08-07T10:47:50.612Z,101467.63
2022-08-07T10:50:25.895Z,101458.72
2022-08-07T10:53:12.279Z,101463.44
2022-08-07T10:56:31.310Z,101464.41
2022-08-07T10:59:25.097Z,101464.34
2022-08-07T11:02:33.645Z,101456.75
2022-08-07T11:05:10.879Z,101452.59
2022-08-07T11:08:00.543Z,101448.31
2022-08-07T11:10:28.995Z,101457.16
2022-08-07T11:13:04.447Z,101448.69
2022-08-07T11:15:38.639Z,101454.59
2022-08-07T11:18:22.138Z,101449.22
2022-08-07T11:21:17.588Z,101447.66
2022-08-07T11:23:59.675Z,101445.56
2022-08-07T11:26:34.252Z,101443.50
2022-08-07T11:29:12.944Z,101438.72
2022-08-07T11:32:10.740Z,101454.31
2022-08-07T11:34:49.566Z,101447.34
2022-08-07T11:37:57.738Z,101435.97
2022-08-07T11:41:04.020Z,101443.38
2022-08-07T11:43:54.722Z,101437.44
2022-08-07T11:46:50.401Z,101439.84
2022-08-07T11:50:18.827Z,101434.78
2022-08-07T11:52:52.822Z,101429.84
2022-08-07T11:56:09.082Z,101431.38
2022-08-07T11:58:41.334Z,101424.19
2022-08-07T12:01:59.183Z,101427.19
2022-08-07T12:04:46.961Z,101431.53
2022-08-07T12:07:38.643Z,101430.28
2022-08-07T12:10:29.580Z,101415.81
2022-08-07T12:13:37.288Z,101414.16
2022-08-07T12:16:30.093Z,101406.31
2022-08-07T12:19:14.613Z,101412.22
2022-08-07T12:22:39.310Z,101413.66
2022-08-07T12:26:22.419Z,101408.53
2022-08-07T12:28:30.868Z,101407.94
2022-08-07T12:31:09.373Z,101397.47
2022-08-07T12:34:01.389Z,101395.22
2022-08-07T12:36:33.102Z,101397.66
2022-08-07T12:39:38.807Z,101381.31
2022-08-07T12:41:55.609Z,101382.69
2022-08-07T12:44:33.111Z,101382.47
2022-08-07T12:47:11.704Z,101376.22
2022-08-07T12:50:05.203Z,101372.13
2022-08-07T12:53:05.162Z,101374.03
2022-08-07T12:56:23.343Z,101376.00
2022-08-07T12:58:57.941Z,101362.47
2022-08-07T13:01:27.919Z,101366.03
2022-08-07T13:04:34.379Z,101361.53
2022-08-07T13:08:14.055Z,101365.34
2022-08-07T13:10:37.825Z,101374.06
2022-08-07T13:13:48.443Z,101364.69
2022-08-07T13:16:18.879Z,101362.19
2022-08-07T13:19:45.970Z,101370.47
2022-08-07T13:22:32.860Z,101365.72
2022-08-07T13:25:15.209Z,101353.22
2022-08-07T13:28:12.706Z,101342.66
2022-08-07T13:31:02.004Z,101344.00
2022-08-07T13:34:34.291Z,101332.22
2022-08-07T13:36:44.971Z,101329.44
2022-08-07T13:40:32.913Z,101341.78
2022-08-07T13:42:29.235Z,101334.66
2022-08-07T13:45:21.000Z,101341.53
2022-08-07T13:48:06.922Z,101339.44
2022-08-07T13:50:45.052Z,101333.19
2022-08-07T13:53:59.749Z,101331.09
2022-08-07T13:56:35.281Z,101334.97
2022-08-07T13:59:24.768Z,101330.22
2022-08-07T14:02:19.662Z,101327.75
2022-08-07T14:05:02.032Z,101334.28
2022-08-07T14:07:33.585Z,101335.22
2022-08-07T14:10:21.762Z,101329.47
2022-08-07T14:12:56.657Z,101331.91
2022-08-07T14:15:36.213Z,101324.53
2022-08-07T14:18:29.961Z,101318.00
2022-08-07T14:22:41.208Z,101314.53
2022-08-07T14:24:19.885Z,101314.28
2022-08-07T14:27:00.622Z,101304.16
2022-08-07T14:30:05.561Z,101306.72
2022-08-07T14:32:46.238Z,101292.91
2022-08-07T14:38:26.047Z,101282.53
2022-08-07T14:40:59.680Z,101281.19
2022-08-07T14:43:58.699Z,101276.09
2022-08-07T14:46:31.149Z,101268.72
2022-08-07T14:52:04.678Z,101267.63
2022-08-07T14:54:42.186Z,101258.44
2022-08-07T14:57:19.778Z,101252.75
2022-08-07T15:00:05.037Z,101241.97
2022-08-07T15:02:35.227Z,101239.34
2022-08-07T15:05:20.626Z,101238.22
2022-08-07T15:07:53.440Z,101249.81
2022-08-07T15:10:29.670Z,101261.97
2022-08-07T15:13:06.216Z,101266.28
2022-08-07T15:15:43.188Z,101266.97
2022-08-07T15:18:28.400Z,101276.19
2022-08-07T15:26:57.890Z,101282.53
2022-08-07T15:30:08.584Z,101291.78
2022-08-07T15:32:38.987Z,101307.50
2022-08-07T15:38:29.999Z,101343.16
2022-08-07T15:41:00.422Z,101349.53
2022-08-07T15:43:55.771Z,101342.28
2022-08-07T15:46:37.606Z,101328.47
2022-08-07T15:49:15.389Z,101320.31
2022-08-07T15:54:41.393Z,101323.75
2022-08-07T15:57:40.211Z,101318.91
2022-08-07T16:00:31.274Z,101316.97
2022-08-07T16:03:01.881Z,101323.00
2022-08-07T16:05:33.622Z,101328.47
2022-08-07T16:08:30.621Z,101345.22
2022-08-07T16:11:26.798Z,101355.78
2022-08-07T16:14:07.519Z,101371.50
2022-08-07T16:17:15.988Z,101378.59
2022-08-07T16:20:05.648Z,101381.97
2022-08-07T16:22:39.029Z,101383.59
2022-08-07T16:25:52.493Z,101389.44
2022-08-07T16:29:18.730Z,101395.69
2022-08-07T16:31:51.868Z,101394.63
2022-08-07T16:34:48.560Z,101387.34
2022-08-07T16:38:06.537Z,101383.88
2022-08-07T16:40:33.323Z,101378.84
2022-08-07T16:44:05.604Z,101368.47
2022-08-07T16:47:05.653Z,101368.53
2022-08-07T16:50:28.167Z,101372.75
2022-08-07T16:52:52.348Z,101382.44
2022-08-07T16:55:47.127Z,101374.38
2022-08-07T16:58:33.692Z,101363.88
2022-08-07T17:01:41.385Z,101349.81
2022-08-07T17:04:24.461Z,101345.94
2022-08-07T17:07:13.540Z,101336.19
2022-08-07T17:10:07.426Z,101344.72
2022-08-07T17:13:03.461Z,101343.56
2022-08-07T17:15:50.726Z,101351.72
2022-08-07T17:18:32.623Z,101347.03
2022-08-07T17:21:04.203Z,101354.41
2022-08-07T17:24:14.193Z,101346.34
2022-08-07T17:27:20.008Z,101342.31
2022-08-07T17:30:14.010Z,101330.63
2022-08-07T17:34:09.613Z,101325.81
2022-08-07T17:36:20.285Z,101324.38
2022-08-07T17:39:15.262Z,101336.75
2022-08-07T17:42:04.955Z,101343.28
2022-08-07T17:44:55.000Z,101341.44
2022-08-07T17:47:42.878Z,101325.94
2022-08-07T17:50:19.131Z,101332.84
2022-08-07T17:52:59.609Z,101320.47
2022-08-07T17:56:01.026Z,101309.97
2022-08-07T17:58:40.496Z,101297.25
2022-08-07T18:01:36.302Z,101305.31
2022-08-07T18:04:34.494Z,101311.19
2022-08-07T18:07:20.521Z,101308.09
2022-08-07T18:10:05.881Z,101308.75
2022-08-07T18:12:53.193Z,101320.69
2022-08-07T18:15:32.979Z,101311.59
2022-08-07T18:18:44.695Z,101289.06
2022-08-07T18:21:38.365Z,101271.19
2022-08-07T18:24:34.320Z,101262.06
2022-08-07T18:27:39.216Z,101231.13
2022-08-07T18:30:31.043Z,101201.94
2022-08-07T18:33:10.388Z,101203.56
2022-08-07T18:36:11.053Z,101215.81
2022-08-07T18:38:59.168Z,101217.22
2022-08-07T18:41:45.660Z,101200.06
2022-08-07T18:45:09.230Z,101203.28
2022-08-07T18:47:45.310Z,101219.16
2022-08-07T18:50:37.998Z,101246.81
2022-08-07T18:53:37.024Z,101211.00
2022-08-07T18:56:57.826Z,101203.41
2022-08-07T18:59:47.609Z,101195.13
2022-08-07T19:02:39.477Z,101199.28
2022-08-07T19:05:23.446Z,101200.19
2022-08-07T19:07:58.160Z,101199.22
2022-08-07T19:10:49.868Z,101198.44
2022-08-07T19:13:34.273Z,101178.97
2022-08-07T19:17:04.479Z,101179.53
2022-08-07T19:19:31.800Z,101192.56
2022-08-07T19:22:31.368Z,101180.97
2022-08-07T19:25:06.897Z,101189.72
2022-08-07T19:28:58.534Z,101187.50
2022-08-07T19:31:04.153Z,101188.28
2022-08-07T19:33:35.060Z,101197.34
2022-08-07T19:36:08.720Z,101198.31
2022-08-07T19:38:53.133Z,101192.09
2022-08-07T19:41:44.489Z,101199.09
2022-08-07T19:44:31.530Z,101205.72
2022-08-07T19:47:07.446Z,101216.06
2022-08-07T19:49:58.402Z,101225.22
2022-08-07T19:52:31.265Z,101240.63
2022-08-07T19:54:59.837Z,101229.72
2022-08-07T19:58:02.107Z,101218.06
2022-08-07T20:00:29.330Z,101226.00
2022-08-07T20:03:03.649Z,101217.91
2022-08-07T20:05:59.768Z,101207.56
2022-08-07T20:08:30.255Z,101213.09
2022-08-07T20:11:09.605Z,101224.31
2022-08-07T20:13:42.014Z,101228.84
2022-08-07T20:16:32.081Z,101235.41
2022-08-07T20:19:00.903Z,101247.50
2022-08-07T20:21:42.284Z,101246.25
2022-08-07T20:24:23.276Z,101240.31
2022-08-07T20:26:54.561Z,101232.19
2022-08-07T20:29:47.751Z,101245.19
2022-08-07T20:32:40.434Z,101245.19
2022-08-07T20:35:12.865Z,101240.41
2022-08-07T20:37:58.277Z,101239.47
2022-08-07T20:40:34.721Z,101239.19
2022-08-07T20:43:14.551Z,101247.56
2022-08-07T20:46:27.060Z,101255.84
2022-08-07T20:48:39.045Z,101261.63
2022-08-07T20:51:28.888Z,101264.63
2022-08-07T20:54:08.644Z,101258.06
2022-08-07T20:56:46.127Z,101260.59
2022-08-07T21:00:04.316Z,101280.19
2022-08-07T21:02:35.255Z,101281.56
2022-08-07T21:05:16.534Z,101272.88
2022-08-07T21:07:49.915Z,101273.28
2022-08-07T21:10:29.523Z,101275.56
2022-08-07T21:13:01.124Z,101290.22
2022-08-07T21:15:47.844Z,101290.88
2022-08-07T21:18:31.980Z,101286.78
2022-08-07T21:21:04.960Z,101301.78
2022-08-07T21:23:50.672Z,101292.91
2022-08-07T21:26:39.513Z,101297.94
2022-08-07T21:29:21.936Z,101301.56
2022-08-07T21:32:47.866Z,101303.88
2022-08-07T21:35:11.458Z,101302.69
2022-08-07T21:37:59.197Z,101306.16
2022-08-07T21:40:35.866Z,101312.09
2022-08-07T21:43:47.405Z,101311.34
2022-08-07T21:46:44.850Z,101306.09
2022-08-07T21:49:26.844Z,101300.31
2022-08-07T21:52:04.339Z,101317.22
2022-08-07T21:55:11.227Z,101319.78
2022-08-07T21:58:07.117Z,101324.06
2022-08-07T22:00:41.047Z,101320.53
2022-08-07T22:03:16.489Z,101328.63
2022-08-07T22:05:53.426Z,101317.78
2022-08-07T22:08:24.769Z,101331.22
2022-08-07T22:11:00.572Z,101331.44
2022-08-07T22:13:51.900Z,101337.75
2022-08-07T22:16:39.458Z,101346.69
2022-08-07T22:19:29.648Z,101345.34
2022-08-07T22:22:27.523Z,101348.66
2022-08-07T22:25:08.386Z,101343.53
2022-08-07T22:28:32.047Z,101355.22
2022-08-07T22:31:59.265Z,101361.56
2022-08-07T22:34:54.842Z,101366.50
2022-08-07T22:38:03.581Z,101369.50
2022-08-07T22:40:52.935Z,101374.69
2022-08-07T22:43:36.532Z,101361.66
2022-08-07T22:47:04.154Z,101363.03
2022-08-07T22:49:51.691Z,101368.31
2022-08-07T22:52:48.337Z,101369.25
2022-08-07T22:55:29.975Z,101366.66
2022-08-07T22:58:19.711Z,101360.28
2022-08-07T23:01:10.085Z,101359.41
2022-08-07T23:04:13.367Z,101362.44
2022-08-07T23:07:40.185Z,101364.19
2022-08-07T23:10:38.039Z,101354.50
2022-08-07T23:13:12.025Z,101359.03
2022-08-07T23:16:44.660Z,101363.25
2022-08-07T23:19:48.254Z,101354.94
2022-08-07T23:22:40.637Z,101352.50
2022-08-07T23:25:17.375Z,101353.31
2022-08-07T23:28:29.618Z,101355.69
2022-08-07T23:31:11.200Z,101345.28
2022-08-07T23:34:34.649Z,101351.69
2022-08-07T23:37:24.543Z,101345.25
2022-08-07T23:40:15.165Z,101346.28
2022-08-07T23:43:00.541Z,101356.03
2022-08-07T23:46:02.605Z,101356.88
2022-08-07T23:48:52.290Z,101358.16
2022-08-07T23:53:01.583Z,101359.19
2022-08-07T23:54:46.539Z,101360.19
2022-08-07T23:57:41.272Z,101358.09
